Nearby METAR Reports

 

YMML - Melbourne Intl A, Australia
Distance from station: SSW 13km
Updated: Wed, 18-May-2022 8:30am AEST
Few Clouds
Few Clouds
 Wind from WNW
Wind: WNW 24 km/h
Temperature: 11°C
Dew Point: 7°C
Humidity: 77%
Barometer: 1019 hPa
Clouds: Few Clouds
Visibility: 10 km
Cloud details: Few Clouds 762 m
2022/05/17 22:30 YMML 172230Z 29013KT 9999 FEW025 11/07 Q1019
YMEN - Melbourne/Essend, Australia
Distance from station: S 16km
Updated: Mon, 16-May-2022 5:28pm AEST
NOT Current
Light rain, Mostly cloudy
Light rain, Mostly cloudy
 Wind from W
Wind: W 30 km/h
Temperature: 13°C
Dew Point: 9°C
Humidity: 77%
Barometer: 1013 hPa
Summary: Light Rain
Clouds: Mostly Cloudy
Visibility: 10 km
Cloud details: Mostly Cloudy 1494 m
Mostly Cloudy 1737 m
Mostly Cloudy 2012 m
2022/05/16 07:28 YMEN 160728Z AUTO 27016KT 9999 -RA BKN049 BKN057 BKN066 13/09 Q1013
 
YMAV - Avalon Airport, Australia
Distance from station: SW 63km
Updated: Wed, 18-May-2022 9:00am AEST
Partly Cloudy
Partly Cloudy
 Wind from WNW
Wind: WNW 24 km/h
Temperature: 12°C
Dew Point: 7°C
Humidity: 72%
Barometer: 1019 hPa
Clouds: Partly Cloudy
Visibility: 10 km
Cloud details: Partly Cloudy 975 m
Partly Cloudy 1433 m
2022/05/17 23:00 YMAV 172300Z AUTO 29013KT 9999 // SCT032 SCT047 12/07 Q1019

Metar display script from Saratoga-Weather.org